Time;durP1;ratioP1;P1;durP2;ratioP2;P2;SDS_P1;SDS_P2;PMS_P1;PMS_P2;Temp;Humidity;BMP_temperature;BMP_pressure;BME280_temperature;BME280_humidity;BME280_pressure;Samples;Min_cycle;Max_cycle;Signal;HPM_P1;HPM_P2
2023/04/28 00:00:53;;;;;;;5.90;2.90;;;;;;;4.75;63.14;101434.28;107765;1250;109582;-62
2023/04/28 00:03:21;;;;;;;11.70;3.70;;;;;;;4.70;63.17;101432.02;107721;1250;108685;-61
2023/04/28 00:05:51;;;;;;;8.90;3.40;;;;;;;4.67;63.17;101428.10;107737;1251;99163;-60
2023/04/28 00:08:22;;;;;;;8.30;3.00;;;;;;;4.66;63.17;101425.31;107727;1250;99178;-61
2023/04/28 00:10:50;;;;;;;7.60;3.30;;;;;;;4.64;63.05;101426.33;107723;1250;112690;-60
2023/04/28 00:13:18;;;;;;;9.80;3.40;;;;;;;4.62;63.04;101425.17;107720;1249;109245;-60
2023/04/28 00:15:49;;;;;;;8.80;3.20;;;;;;;4.60;62.96;101427.62;107814;1248;111467;-60
2023/04/28 00:18:19;;;;;;;9.90;3.50;;;;;;;4.59;63.39;101431.91;107961;1248;99130;-60
2023/04/28 00:20:47;;;;;;;8.80;3.80;;;;;;;4.56;63.48;101433.48;107644;1250;99051;-61
2023/04/28 00:23:16;;;;;;;9.40;2.80;;;;;;;4.52;63.69;101434.42;107592;1253;112273;-63
2023/04/28 00:25:50;;;;;;;6.50;3.40;;;;;;;4.49;63.69;101437.57;107830;1249;109642;-61
2023/04/28 00:28:19;;;;;;;10.50;3.90;;;;;;;4.48;63.77;101438.85;107734;1253;108709;-60
2023/04/28 00:31:01;;;;;;;6.70;3.00;;;;;;;4.48;64.04;101442.79;107821;1248;99351;-60
2023/04/28 00:33:30;;;;;;;8.30;3.30;;;;;;;4.47;64.40;101445.52;107827;1248;99051;-62
2023/04/28 00:35:59;;;;;;;8.50;2.90;;;;;;;4.48;64.30;101443.52;107604;1250;112644;-61
2023/04/28 00:38:28;;;;;;;10.90;3.50;;;;;;;4.48;64.33;101442.43;107619;1250;110514;-61
2023/04/28 00:40:57;;;;;;;10.40;3.30;;;;;;;4.48;64.18;101445.23;107934;1248;108439;-61
2023/04/28 00:43:26;;;;;;;9.10;3.10;;;;;;;4.50;64.43;101443.23;107828;1248;99211;-60
2023/04/28 00:45:55;;;;;;;9.30;3.60;;;;;;;4.50;64.30;101448.17;107680;1249;99063;-60
2023/04/28 00:48:23;;;;;;;9.90;3.20;;;;;;;4.49;64.59;101448.06;107681;1250;113602;-59
2023/04/28 00:50:52;;;;;;;19.60;3.40;;;;;;;4.48;64.27;101448.27;107726;1249;111030;-60
2023/04/28 00:53:20;;;;;;;7.10;3.80;;;;;;;4.48;64.12;101450.63;107593;1250;108835;-61
2023/04/28 00:55:51;;;;;;;9.90;3.10;;;;;;;4.46;64.07;101449.44;107704;1251;99167;-59
2023/04/28 00:58:20;;;;;;;6.40;3.80;;;;;;;4.44;64.20;101449.38;107763;1248;99054;-60
2023/04/28 01:00:49;;;;;;;6.50;3.20;;;;;;;4.42;64.09;101448.80;107725;1250;112826;-60
2023/04/28 01:03:17;;;;;;;6.10;3.00;;;;;;;4.41;63.95;101454.17;107695;1250;109661;-61
2023/04/28 01:05:46;;;;;;;21.10;8.30;;;;;;;4.39;64.26;101449.14;107717;1250;108122;-62
2023/04/28 01:08:15;;;;;;;10.80;4.70;;;;;;;4.34;64.35;101447.42;107723;1250;99198;-60
2023/04/28 01:10:44;;;;;;;7.10;3.70;;;;;;;4.30;64.33;101449.02;107741;1250;99733;-60
2023/04/28 01:13:19;;;;;;;9.50;4.00;;;;;;;4.28;64.49;101449.64;107655;1251;112823;-60
2023/04/28 01:15:49;;;;;;;9.20;3.60;;;;;;;4.26;64.55;101449.74;107910;1248;109722;-59
2023/04/28 01:18:17;;;;;;;6.60;3.00;;;;;;;4.25;64.64;101445.90;107924;1248;108726;-61
2023/04/28 01:20:46;;;;;;;4.80;2.90;;;;;;;4.26;64.55;101447.48;107647;1250;99044;-59
2023/04/28 01:23:16;;;;;;;8.20;3.70;;;;;;;4.25;64.74;101446.46;107499;1250;99306;-61
2023/04/28 01:25:44;;;;;;;7.40;2.60;;;;;;;4.25;64.73;101443.80;107826;1248;113726;-60
2023/04/28 01:28:13;;;;;;;8.80;3.30;;;;;;;4.26;65.00;101439.69;107873;1253;111128;-60
2023/04/28 01:30:42;;;;;;;5.70;3.20;;;;;;;4.26;65.19;101442.69;107810;1251;107966;-60
2023/04/28 01:33:10;;;;;;;9.10;3.40;;;;;;;4.24;64.82;101444.39;107790;1253;99194;-60
2023/04/28 01:35:39;;;;;;;7.90;3.30;;;;;;;4.20;65.34;101446.17;107694;1251;99185;-59
2023/04/28 01:38:10;;;;;;;11.50;3.60;;;;;;;4.17;65.25;101448.97;107518;1250;112990;-59
2023/04/28 01:40:38;;;;;;;9.60;3.70;;;;;;;4.15;65.36;101446.42;107566;1254;109662;-61
2023/04/28 01:43:06;;;;;;;7.30;3.00;;;;;;;4.13;65.72;101445.11;107550;1254;107564;-60
2023/04/28 01:45:35;;;;;;;11.20;2.90;;;;;;;4.11;65.81;101447.35;107813;1248;99163;-62
2023/04/28 01:48:04;;;;;;;10.50;3.30;;;;;;;4.09;66.01;101448.85;107901;1248;99162;-61
2023/04/28 01:50:32;;;;;;;4.70;2.80;;;;;;;4.08;65.88;101450.83;107877;1248;112884;-61
2023/04/28 01:53:03;;;;;;;8.20;2.80;;;;;;;4.07;66.06;101452.83;107560;1248;109861;-61
2023/04/28 01:55:32;;;;;;;7.80;3.50;;;;;;;4.07;65.98;101453.91;107575;1248;108925;-59
2023/04/28 01:58:01;;;;;;;9.10;3.40;;;;;;;4.09;65.95;101454.18;107852;1248;99185;-61
2023/04/28 02:00:30;;;;;;;10.80;3.20;;;;;;;4.10;65.94;101452.37;107799;1249;99805;-61
2023/04/28 02:02:58;;;;;;;7.40;3.30;;;;;;;4.12;65.79;101459.39;107633;1250;114324;-61
2023/04/28 02:05:27;;;;;;;14.00;3.80;;;;;;;4.11;65.91;101460.99;107697;1250;109997;-60
2023/04/28 02:07:55;;;;;;;11.30;3.40;;;;;;;4.11;65.67;101465.99;107763;1249;108439;-60
2023/04/28 02:10:23;;;;;;;8.00;3.40;;;;;;;4.12;65.86;101474.46;107580;1249;99061;-61
2023/04/28 02:12:52;;;;;;;12.80;3.70;;;;;;;4.14;65.98;101471.53;107628;1251;99710;-60
2023/04/28 02:15:20;;;;;;;5.50;2.90;;;;;;;4.14;66.00;101469.70;107751;1251;112313;-60
2023/04/28 02:17:49;;;;;;;5.60;3.00;;;;;;;4.14;66.10;101466.91;107716;1250;108687;-60
2023/04/28 02:20:18;;;;;;;9.60;3.30;;;;;;;4.13;66.06;101467.13;107659;1250;108757;-60
2023/04/28 02:22:48;;;;;;;6.90;2.90;;;;;;;4.11;65.97;101466.50;107622;1250;99178;-59
2023/04/28 02:25:17;;;;;;;13.80;3.70;;;;;;;4.11;66.20;101470.08;107735;1250;99756;-61
2023/04/28 02:27:45;;;;;;;9.80;3.30;;;;;;;4.11;66.37;101469.20;107646;1249;113055;-61
2023/04/28 02:30:15;;;;;;;5.60;2.80;;;;;;;4.09;66.50;101477.27;107590;1250;107928;-59
2023/04/28 02:32:43;;;;;;;11.00;3.40;;;;;;;4.06;66.64;101477.94;107609;1250;108201;-59
2023/04/28 02:35:12;;;;;;;11.80;3.40;;;;;;;4.04;66.48;101480.14;107610;1251;99163;-60
2023/04/28 02:37:40;;;;;;;7.30;3.40;;;;;;;4.02;66.66;101483.48;107708;1252;99051;-60
2023/04/28 02:40:09;;;;;;;10.00;2.90;;;;;;;4.00;66.62;101482.68;107729;1248;113160;-60
2023/04/28 02:42:37;;;;;;;9.80;3.00;;;;;;;3.96;66.75;101486.63;107897;1248;110070;-60
2023/04/28 02:45:07;;;;;;;8.40;3.50;;;;;;;3.92;66.77;101492.47;107847;1250;108037;-60
2023/04/28 02:47:35;;;;;;;10.00;3.70;;;;;;;3.88;66.75;101492.84;107686;1250;99590;-61
2023/04/28 02:50:05;;;;;;;7.40;3.50;;;;;;;3.85;67.03;101495.83;107601;1254;99308;-59
2023/04/28 02:52:33;;;;;;;9.20;3.10;;;;;;;3.84;67.91;101501.21;107610;1250;112114;-61
2023/04/28 02:55:03;;;;;;;8.80;3.20;;;;;;;3.79;68.06;101502.54;107648;1251;110069;-60
2023/04/28 02:57:32;;;;;;;8.80;3.40;;;;;;;3.75;67.97;101507.64;107726;1250;107826;-60
2023/04/28 03:00:00;;;;;;;10.10;3.40;;;;;;;3.72;68.07;101504.75;107729;1250;99154;-61
2023/04/28 03:02:33;;;;;;;12.80;3.60;;;;;;;3.70;67.82;101505.77;107552;1250;99177;-59
2023/04/28 03:05:01;;;;;;;7.00;2.90;;;;;;;3.68;67.96;101507.84;107693;1248;112662;-59
2023/04/28 03:07:30;;;;;;;10.40;4.00;;;;;;;3.67;68.36;101510.01;107592;1248;109006;-59
2023/04/28 03:09:58;;;;;;;7.20;3.50;;;;;;;3.66;68.33;101514.14;107599;1250;108054;-61
2023/04/28 03:12:27;;;;;;;14.40;3.70;;;;;;;3.65;69.25;101518.96;107511;1250;99083;-59
2023/04/28 03:14:55;;;;;;;10.60;3.10;;;;;;;3.64;69.07;101519.55;107730;1248;99798;-59
2023/04/28 03:17:24;;;;;;;13.30;3.30;;;;;;;3.63;69.25;101524.75;107875;1248;112551;-60
2023/04/28 03:19:52;;;;;;;7.20;4.10;;;;;;;3.61;69.78;101525.90;107813;1251;110118;-66
2023/04/28 03:22:21;;;;;;;10.70;4.10;;;;;;;3.57;69.42;101525.34;107614;1250;108161;-60
2023/04/28 03:24:49;;;;;;;12.00;4.30;;;;;;;3.55;69.32;101527.39;107629;1249;99173;-60
2023/04/28 03:27:18;;;;;;;9.20;3.90;;;;;;;3.55;69.49;101529.35;107697;1250;99239;-60
2023/04/28 03:29:47;;;;;;;11.40;3.50;;;;;;;3.57;69.76;101539.20;107653;1250;113745;-58
2023/04/28 03:32:15;;;;;;;9.40;5.00;;;;;;;3.58;69.56;101540.39;107639;1251;108694;-61
2023/04/28 03:34:44;;;;;;;8.50;3.60;;;;;;;3.58;69.69;101541.45;107634;1249;107435;-61
2023/04/28 03:37:12;;;;;;;12.30;4.30;;;;;;;3.60;69.71;101540.48;107680;1251;99173;-58
2023/04/28 03:39:41;;;;;;;9.60;4.70;;;;;;;3.62;69.97;101539.34;107704;1253;99265;-61
2023/04/28 03:42:09;;;;;;;11.90;4.70;;;;;;;3.60;69.91;101540.29;107612;1256;112678;-59
2023/04/28 03:44:38;;;;;;;7.60;4.40;;;;;;;3.60;69.93;101539.06;107630;1250;109490;-59
2023/04/28 03:47:07;;;;;;;12.30;4.50;;;;;;;3.60;70.54;101541.34;107658;1249;109249;-60
2023/04/28 03:49:36;;;;;;;9.10;3.50;;;;;;;3.61;70.91;101541.66;107696;1253;99061;-62
2023/04/28 03:52:05;;;;;;;7.10;3.80;;;;;;;3.62;71.21;101545.70;107634;1250;99068;-60
2023/04/28 03:54:34;;;;;;;8.30;3.30;;;;;;;3.65;71.07;101549.66;107565;1250;112984;-60
2023/04/28 03:57:03;;;;;;;9.80;3.60;;;;;;;3.67;70.89;101550.63;107744;1249;110143;-59
2023/04/28 03:59:33;;;;;;;8.90;4.10;;;;;;;3.70;70.69;101552.59;107630;1251;108063;-63
2023/04/28 04:02:01;;;;;;;13.10;3.90;;;;;;;3.75;70.81;101551.48;107630;1250;99236;-62
2023/04/28 04:04:30;;;;;;;6.60;3.70;;;;;;;3.79;70.64;101554.14;107703;1255;99141;-62
2023/04/28 04:06:59;;;;;;;18.80;3.20;;;;;;;3.84;70.40;101558.70;107746;1251;113332;-59
2023/04/28 04:09:29;;;;;;;10.30;3.50;;;;;;;3.88;70.59;101559.94;107678;1250;109214;-60
2023/04/28 04:11:57;;;;;;;10.80;3.60;;;;;;;3.92;70.45;101554.42;107683;1252;108131;-60
2023/04/28 04:14:26;;;;;;;8.80;3.50;;;;;;;3.95;70.44;101553.19;107691;1254;99253;-59
2023/04/28 04:16:54;;;;;;;13.30;3.70;;;;;;;4.02;70.69;101554.42;107853;1248;99678;-60
2023/04/28 04:19:25;;;;;;;11.70;4.00;;;;;;;4.10;70.69;101556.20;107899;1248;111707;-60
2023/04/28 04:21:55;;;;;;;7.40;3.80;;;;;;;4.16;70.18;101557.35;107657;1248;108808;-60
2023/04/28 04:24:24;;;;;;;6.40;3.20;;;;;;;4.22;70.22;101562.20;107756;1253;107787;-64
2023/04/28 04:26:53;;;;;;;9.50;3.40;;;;;;;4.28;70.27;101561.19;107731;1250;99241;-61
2023/04/28 04:29:39;;;;;;;7.10;3.00;;;;;;;4.34;70.26;101561.58;107614;1253;99745;-59
2023/04/28 04:32:12;;;;;;;12.70;3.80;;;;;;;4.41;70.29;101565.86;107713;1250;113088;-61
2023/04/28 04:34:41;;;;;;;7.20;4.00;;;;;;;4.49;70.10;101566.55;107694;1250;110070;-60
2023/04/28 04:37:11;;;;;;;14.80;4.10;;;;;;;4.56;70.31;101565.84;107577;1253;107024;-61
2023/04/28 04:39:45;;;;;;;13.80;3.80;;;;;;;4.63;69.90;101563.69;107600;1250;99196;-60
2023/04/28 04:42:15;;;;;;;7.40;3.30;;;;;;;4.69;70.01;101565.52;107577;1250;99781;-60
2023/04/28 04:45:29;;;;;;;15.70;4.60;;;;;;;4.80;69.65;101565.88;107549;1250;113149;-60
2023/04/28 04:47:58;;;;;;;12.00;3.40;;;;;;;4.87;69.54;101567.09;107691;1250;109221;-61
2023/04/28 04:50:27;;;;;;;12.60;3.30;;;;;;;4.96;69.42;101570.91;107718;1250;107999;-61
2023/04/28 04:52:57;;;;;;;14.70;3.60;;;;;;;5.04;69.00;101575.45;107655;1253;99234;-59
2023/04/28 04:55:26;;;;;;;13.20;4.90;;;;;;;5.13;68.75;101573.06;107746;1250;99173;-60
2023/04/28 04:57:55;;;;;;;10.30;3.80;;;;;;;5.21;68.54;101570.00;107714;1250;112338;-60
2023/04/28 05:00:43;;;;;;;9.20;3.00;;;;;;;5.28;68.25;101570.13;107702;1251;109729;-60
2023/04/28 05:03:13;;;;;;;13.10;3.80;;;;;;;5.36;68.00;101571.12;107653;1251;107629;-61
2023/04/28 05:05:43;;;;;;;7.00;3.50;;;;;;;5.43;67.91;101570.73;107723;1251;99162;-61
2023/04/28 05:08:28;;;;;;;7.90;3.10;;;;;;;5.52;67.34;101569.91;107744;1253;99732;-61
2023/04/28 05:10:57;;;;;;;16.00;3.20;;;;;;;5.60;67.33;101567.16;107850;1248;112181;-59
2023/04/28 05:13:26;;;;;;;11.00;3.80;;;;;;;5.69;67.08;101570.95;107723;1248;109333;-60
2023/04/28 05:15:59;;;;;;;10.10;3.10;;;;;;;5.77;66.74;101571.56;107744;1251;107840;-61
2023/04/28 05:18:35;;;;;;;4.70;3.40;;;;;;;5.86;66.24;101577.67;107533;1250;99230;-62
2023/04/28 05:21:05;;;;;;;8.40;3.40;;;;;;;5.96;65.16;101574.79;107710;1248;99051;-60
2023/04/28 05:23:36;;;;;;;6.80;2.90;;;;;;;6.05;65.04;101572.34;107873;1253;113604;-62
2023/04/28 05:26:06;;;;;;;5.70;2.40;;;;;;;6.15;64.58;101574.46;107630;1250;108933;-61
2023/04/28 05:28:35;;;;;;;10.10;3.10;;;;;;;6.24;64.26;101575.35;107669;1251;108554;-60
2023/04/28 05:31:05;;;;;;;8.60;3.40;;;;;;;6.33;63.70;101572.18;107682;1250;99042;-64
2023/04/28 05:33:33;;;;;;;14.60;3.40;;;;;;;6.42;63.64;101579.17;107578;1254;100478;-60
2023/04/28 05:36:02;;;;;;;9.30;3.10;;;;;;;6.49;63.37;101581.59;107695;1250;113620;-65
2023/04/28 05:38:32;;;;;;;11.50;3.20;;;;;;;6.55;62.83;101579.27;107566;1251;109648;-60
2023/04/28 05:41:01;;;;;;;7.00;2.80;;;;;;;6.63;62.61;101582.20;107627;1250;108043;-59
2023/04/28 05:43:32;;;;;;;16.70;2.70;;;;;;;6.71;62.09;101584.94;107592;1250;99219;-60
2023/04/28 05:46:25;;;;;;;11.60;3.50;;;;;;;6.80;61.87;101588.51;107574;1251;99086;-60
2023/04/28 05:49:01;;;;;;;8.80;2.90;;;;;;;6.86;62.24;101592.44;107520;1250;113814;-60
2023/04/28 05:51:33;;;;;;;9.90;2.90;;;;;;;6.92;62.39;101593.73;107780;1251;109698;-61
2023/04/28 05:54:02;;;;;;;6.30;2.70;;;;;;;6.97;62.42;101592.88;107806;1251;108721;-60
2023/04/28 05:56:32;;;;;;;8.80;3.30;;;;;;;7.02;62.50;101591.66;107638;1250;99262;-61
2023/04/28 05:59:03;;;;;;;14.30;3.50;;;;;;;7.08;62.51;101594.71;107570;1250;99293;-61
2023/04/28 06:01:32;;;;;;;6.00;3.50;;;;;;;7.13;62.24;101598.70;107612;1251;113386;-61
2023/04/28 06:04:00;;;;;;;10.50;3.50;;;;;;;7.24;62.10;101598.06;107529;1250;108998;-61
2023/04/28 06:06:31;;;;;;;16.40;3.80;;;;;;;7.30;61.97;101600.70;107637;1249;107714;-60
2023/04/28 06:09:00;;;;;;;7.90;4.20;;;;;;;7.34;62.12;101603.09;107588;1251;99160;-60
2023/04/28 06:11:29;;;;;;;12.00;3.60;;;;;;;7.42;62.14;101608.35;107605;1252;99194;-60
2023/04/28 06:13:57;;;;;;;12.50;4.20;;;;;;;7.48;61.97;101611.58;107640;1250;112270;-61
2023/04/28 06:16:27;;;;;;;15.40;3.70;;;;;;;7.52;61.99;101608.07;107706;1254;109625;-60
2023/04/28 06:18:57;;;;;;;11.90;3.40;;;;;;;7.61;61.48;101608.41;107541;1250;108685;-61
2023/04/28 06:21:27;;;;;;;13.00;3.60;;;;;;;7.67;61.79;101607.85;107748;1253;99185;-61
2023/04/28 06:24:00;;;;;;;8.50;4.00;;;;;;;7.74;61.58;101606.38;107737;1253;99054;-62
2023/04/28 06:26:30;;;;;;;10.20;4.20;;;;;;;7.80;61.38;101601.68;107646;1256;113581;-60
2023/04/28 06:28:58;;;;;;;11.10;3.70;;;;;;;7.86;61.08;101607.91;107720;1251;110022;-61
2023/04/28 06:31:27;;;;;;;7.00;2.50;;;;;;;7.96;60.78;101602.81;107727;1250;108262;-61
2023/04/28 06:33:55;;;;;;;7.90;2.50;;;;;;;8.03;58.88;101603.65;107787;1251;99225;-62
2023/04/28 06:36:24;;;;;;;41.60;3.90;;;;;;;8.10;57.57;101606.76;107621;1254;99724;-60
2023/04/28 06:38:53;;;;;;;6.10;2.40;;;;;;;8.20;56.45;101612.20;107546;1250;112642;-60
2023/04/28 06:41:21;;;;;;;4.80;2.20;;;;;;;8.25;56.66;101608.64;107575;1253;107778;-62
2023/04/28 06:43:52;;;;;;;8.70;3.20;;;;;;;8.31;56.75;101611.64;107635;1250;108147;-61
2023/04/28 06:46:26;;;;;;;11.00;2.30;;;;;;;8.38;55.93;101611.36;107652;1251;99160;-61
2023/04/28 06:48:54;;;;;;;6.00;2.20;;;;;;;8.46;55.07;101613.88;107525;1250;99169;-62
2023/04/28 06:51:27;;;;;;;5.90;2.20;;;;;;;8.51;54.88;101615.92;107630;1251;114242;-61
2023/04/28 06:53:56;;;;;;;6.60;2.10;;;;;;;8.58;54.90;101618.66;107581;1251;110083;-61
2023/04/28 06:56:24;;;;;;;7.50;2.60;;;;;;;8.65;54.88;101620.20;107588;1249;108628;-61
2023/04/28 06:58:56;;;;;;;5.50;2.40;;;;;;;8.73;54.04;101619.11;107643;1250;99043;-63
2023/04/28 07:01:24;;;;;;;6.00;2.50;;;;;;;8.81;53.28;101617.64;107622;1250;99103;-61
2023/04/28 07:03:53;;;;;;;5.90;2.10;;;;;;;8.88;53.14;101617.93;107549;1250;113382;-61
2023/04/28 07:06:22;;;;;;;6.20;2.20;;;;;;;8.92;53.35;101614.95;107637;1251;110383;-61
2023/04/28 07:08:51;;;;;;;5.90;2.10;;;;;;;8.98;52.15;101614.41;107666;1251;108136;-62
2023/04/28 07:11:19;;;;;;;6.10;2.00;;;;;;;9.02;52.46;101619.61;107683;1251;99297;-61
2023/04/28 07:13:50;;;;;;;5.40;2.30;;;;;;;9.10;52.09;101619.33;107714;1250;99695;-61
2023/04/28 07:16:20;;;;;;;6.70;2.10;;;;;;;9.17;52.20;101623.80;107783;1251;113675;-61
2023/04/28 07:18:49;;;;;;;8.20;2.40;;;;;;;9.25;52.18;101625.75;107518;1250;109806;-61
2023/04/28 07:21:17;;;;;;;10.20;2.40;;;;;;;9.34;51.88;101626.96;107553;1251;107844;-60
2023/04/28 07:23:45;;;;;;;7.00;2.40;;;;;;;9.45;51.78;101624.55;107866;1249;99166;-61
2023/04/28 07:26:15;;;;;;;6.40;2.20;;;;;;;9.57;51.54;101621.77;107816;1248;99720;-62
2023/04/28 07:28:43;;;;;;;6.80;2.30;;;;;;;9.68;50.56;101623.16;107869;1248;112656;-62
2023/04/28 07:31:12;;;;;;;9.20;2.30;;;;;;;9.79;50.49;101621.98;107817;1250;109829;-60
2023/04/28 07:33:41;;;;;;;15.00;2.50;;;;;;;9.91;50.57;101621.72;107576;1250;108123;-64
2023/04/28 07:36:09;;;;;;;5.50;1.90;;;;;;;10.03;49.58;101614.73;107538;1253;99173;-61
2023/04/28 07:38:38;;;;;;;5.30;1.90;;;;;;;10.16;49.18;101610.95;107745;1253;99262;-61
2023/04/28 07:41:06;;;;;;;6.50;2.10;;;;;;;10.23;49.61;101613.44;107724;1251;112673;-61
2023/04/28 07:43:39;;;;;;;6.20;2.40;;;;;;;10.34;49.00;101609.06;107757;1250;109570;-61
2023/04/28 07:46:17;;;;;;;7.70;2.20;;;;;;;10.48;48.51;101605.40;105183;1285;636070;-61
2023/04/28 07:48:45;;;;;;;9.80;2.60;;;;;;;10.58;47.07;101603.91;106668;1267;95807;-63
2023/04/28 07:51:14;;;;;;;3.90;1.90;;;;;;;10.66;46.63;101604.55;107546;1254;95761;-61
2023/04/28 07:53:42;;;;;;;8.50;2.10;;;;;;;10.74;45.89;101601.08;107560;1253;107722;-61
2023/04/28 07:56:11;;;;;;;7.00;1.80;;;;;;;10.87;44.68;101597.77;107537;1254;108440;-61
2023/04/28 07:58:40;;;;;;;7.50;2.10;;;;;;;11.03;44.02;101603.73;107475;1254;108138;-62
2023/04/28 08:01:08;;;;;;;9.00;1.70;;;;;;;11.11;44.20;101599.49;106924;1251;96357;-61
2023/04/28 08:03:37;;;;;;;6.10;2.30;;;;;;;11.22;44.45;101597.27;107540;1251;95669;-61
2023/04/28 08:06:06;;;;;;;8.30;2.30;;;;;;;11.30;44.88;101594.63;107588;1254;108217;-61
2023/04/28 08:08:34;;;;;;;11.60;1.70;;;;;;;11.43;44.51;101594.69;107603;1251;109150;-60
2023/04/28 08:11:03;;;;;;;10.20;1.80;;;;;;;11.56;42.84;101589.23;107533;1251;107647;-63
2023/04/28 08:13:32;;;;;;;10.10;1.90;;;;;;;11.67;42.50;101589.92;107577;1251;95796;-61
2023/04/28 08:16:00;;;;;;;6.30;1.70;;;;;;;11.76;42.59;101583.66;107575;1251;95795;-60
2023/04/28 08:18:29;;;;;;;5.00;2.30;;;;;;;11.86;42.60;101582.10;107556;1251;109778;-60
2023/04/28 08:20:57;;;;;;;8.70;2.30;;;;;;;11.99;42.50;101576.41;107519;1251;109996;-62
2023/04/28 08:23:27;;;;;;;7.40;2.70;;;;;;;12.14;41.70;101576.46;107548;1251;106074;-62
2023/04/28 08:25:55;;;;;;;4.40;1.40;;;;;;;12.28;41.85;101573.38;107601;1251;95815;-63
2023/04/28 08:28:24;;;;;;;9.40;2.30;;;;;;;12.48;41.85;101574.36;107547;1251;95779;-61
2023/04/28 08:30:54;;;;;;;7.20;1.70;;;;;;;12.67;41.14;101573.16;107557;1251;109330;-63
2023/04/28 08:33:23;;;;;;;10.10;2.40;;;;;;;12.81;41.01;101573.22;107607;1251;109543;-62
2023/04/28 08:35:52;;;;;;;8.90;1.80;;;;;;;12.96;40.49;101567.63;107526;1251;107564;-61
2023/04/28 08:38:22;;;;;;;8.70;1.90;;;;;;;13.10;39.55;101563.19;107428;1251;95770;-62
2023/04/28 08:40:51;;;;;;;6.50;2.00;;;;;;;13.24;39.90;101558.55;107571;1251;95764;-63
2023/04/28 08:43:20;;;;;;;8.00;2.50;;;;;;;13.43;39.99;101547.79;107608;1251;109182;-61
2023/04/28 08:45:49;;;;;;;6.50;2.80;;;;;;;13.64;39.82;101553.85;107525;1251;108968;-63
2023/04/28 08:48:19;;;;;;;8.20;3.60;;;;;;;13.89;38.71;101549.56;107483;1254;109652;-61
2023/04/28 08:50:50;;;;;;;9.30;3.50;;;;;;;13.90;38.10;101552.18;107475;1254;95842;-64
2023/04/28 08:53:22;;;;;;;4.30;2.00;;;;;;;13.90;37.08;101555.52;107508;1251;95791;-63
2023/04/28 08:55:55;;;;;;;6.30;2.40;;;;;;;13.90;36.11;101547.20;107543;1251;108205;-62
2023/04/28 08:58:25;;;;;;;7.50;2.30;;;;;;;13.88;37.22;101549.39;107495;1251;110062;-63
2023/04/28 09:00:53;;;;;;;8.40;2.10;;;;;;;13.87;37.29;101548.57;107474;1251;108823;-62
2023/04/28 09:03:22;;;;;;;3.70;2.00;;;;;;;14.07;38.02;101540.03;107519;1256;95876;-63
2023/04/28 09:05:50;;;;;;;8.60;2.80;;;;;;;14.33;37.92;101530.83;107524;1253;95800;-62
2023/04/28 09:08:19;;;;;;;9.50;2.50;;;;;;;14.35;37.61;101528.89;107542;1251;108720;-63
2023/04/28 09:10:47;;;;;;;6.80;2.00;;;;;;;14.42;37.28;101532.30;107507;1251;110042;-63
2023/04/28 09:13:25;;;;;;;5.20;1.70;;;;;;;14.65;36.78;101530.41;107478;1251;107765;-63
2023/04/28 09:16:03;;;;;;;5.70;2.50;;;;;;;14.61;35.21;101531.13;107500;1254;95873;-62
2023/04/28 09:18:56;;;;;;;6.30;2.10;;;;;;;14.50;36.08;101524.40;107510;1251;95807;-63
2023/04/28 09:21:24;;;;;;;4.90;2.10;;;;;;;14.51;36.47;101523.80;107634;1255;109564;-61
2023/04/28 09:23:52;;;;;;;6.50;2.70;;;;;;;14.34;36.25;101527.85;107512;1251;109977;-61
2023/04/28 09:26:21;;;;;;;9.30;2.00;;;;;;;14.08;35.60;101533.81;107500;1251;108284;-60
2023/04/28 09:28:49;;;;;;;4.00;1.60;;;;;;;13.94;35.01;101532.35;107425;1254;95892;-63
2023/04/28 09:31:26;;;;;;;7.60;1.40;;;;;;;14.00;35.04;101530.42;107552;1251;95911;-61
2023/04/28 09:33:57;;;;;;;10.60;1.80;;;;;;;14.66;34.42;101525.62;107521;1254;108692;-61
2023/04/28 09:36:28;;;;;;;4.40;1.90;;;;;;;15.14;33.86;101521.98;107579;1252;109151;-63
2023/04/28 09:39:00;;;;;;;5.60;2.30;;;;;;;15.01;33.98;101524.18;107524;1251;107289;-62
2023/04/28 09:41:39;;;;;;;6.10;1.90;;;;;;;14.87;33.99;101524.39;107514;1251;95842;-62
2023/04/28 09:44:20;;;;;;;5.60;1.50;;;;;;;14.74;34.05;101520.25;107534;1251;95761;-62
2023/04/28 09:46:49;;;;;;;9.20;1.50;;;;;;;14.81;34.68;101513.22;107502;1251;110304;-62
2023/04/28 09:49:18;;;;;;;5.40;1.70;;;;;;;14.93;34.54;101517.15;107574;1254;111544;-61
2023/04/28 09:51:46;;;;;;;3.30;1.70;;;;;;;15.00;33.67;101515.74;107544;1254;107329;-61
2023/04/28 09:54:15;;;;;;;21.40;2.50;;;;;;;15.05;33.57;101515.48;107461;1251;95874;-61
2023/04/28 09:56:46;;;;;;;4.10;1.50;;;;;;;14.94;33.18;101515.95;107512;1251;95802;-63
2023/04/28 09:59:14;;;;;;;8.20;2.00;;;;;;;14.90;33.23;101513.82;107583;1251;108832;-64
2023/04/28 10:01:44;;;;;;;2.40;1.30;;;;;;;14.87;33.73;101515.37;107540;1251;109790;-63
2023/04/28 10:04:13;;;;;;;3.40;1.30;;;;;;;14.86;33.40;101510.75;107531;1251;107113;-61
2023/04/28 10:06:43;;;;;;;3.20;2.10;;;;;;;14.80;33.47;101516.39;107499;1251;95832;-61
2023/04/28 10:09:12;;;;;;;9.00;2.90;;;;;;;15.06;32.81;101517.30;107531;1251;95794;-61
2023/04/28 10:11:41;;;;;;;9.00;1.80;;;;;;;16.26;31.80;101505.30;107448;1257;109649;-61
2023/04/28 10:14:10;;;;;;;5.50;1.70;;;;;;;17.57;29.84;101498.48;107664;1254;108833;-62
2023/04/28 10:16:39;;;;;;;4.60;1.70;;;;;;;17.67;28.91;101503.43;107585;1252;108281;-61
2023/04/28 10:19:08;;;;;;;7.60;1.50;;;;;;;17.05;28.64;101502.70;107450;1251;95786;-62
2023/04/28 10:21:45;;;;;;;6.50;1.60;;;;;;;16.48;29.73;101513.16;107544;1251;95759;-62
2023/04/28 10:24:28;;;;;;;8.20;1.80;;;;;;;17.23;28.79;101504.45;107497;1251;108967;-61
2023/04/28 10:27:02;;;;;;;9.40;1.50;;;;;;;18.33;27.59;101499.48;107520;1251;108851;-61
2023/04/28 10:29:32;;;;;;;3.70;1.50;;;;;;;19.10;26.16;101489.02;107526;1251;108475;-61
2023/04/28 10:32:20;;;;;;;4.50;1.50;;;;;;;18.72;26.80;101498.12;107537;1251;95971;-62
2023/04/28 10:34:49;;;;;;;4.40;1.90;;;;;;;18.03;27.55;101492.11;107678;1251;95919;-62
2023/04/28 10:37:18;;;;;;;8.90;1.30;;;;;;;17.51;27.83;101500.58;107650;1251;108731;-62
2023/04/28 10:40:25;;;;;;;4.70;1.60;;;;;;;17.87;26.89;101499.85;107566;1251;109111;-63
2023/04/28 10:42:57;;;;;;;5.80;1.70;;;;;;;18.88;25.35;101486.98;107512;1251;108533;-62
2023/04/28 10:45:48;;;;;;;2.90;1.50;;;;;;;18.98;25.93;101489.13;107482;1251;95784;-63
2023/04/28 10:48:21;;;;;;;6.00;1.90;;;;;;;18.39;26.65;101498.69;107511;1251;95819;-61
2023/04/28 10:51:05;;;;;;;4.10;1.60;;;;;;;17.81;26.57;101500.65;107569;1251;109859;-62
2023/04/28 10:53:46;;;;;;;2.20;1.30;;;;;;;17.70;27.54;101495.79;107577;1254;109100;-63
2023/04/28 10:56:26;;;;;;;3.50;1.50;;;;;;;17.81;27.32;101496.44;107623;1254;109325;-61
2023/04/28 10:58:58;;;;;;;4.30;1.50;;;;;;;17.71;27.15;101495.21;107547;1251;95892;-62
2023/04/28 11:01:29;;;;;;;4.20;1.50;;;;;;;17.61;26.89;101490.25;107571;1251;95019;-64
2023/04/28 11:03:59;;;;;;;3.90;1.40;;;;;;;17.76;26.82;101484.98;107593;1254;110748;-61
2023/04/28 11:06:39;;;;;;;3.60;1.40;;;;;;;17.36;27.25;101482.37;107635;1253;109672;-62
2023/04/28 11:09:13;;;;;;;5.10;1.80;;;;;;;17.07;27.78;101486.65;107603;1251;107692;-62
2023/04/28 11:12:05;;;;;;;7.30;1.20;;;;;;;16.72;28.25;101498.64;107545;1251;95845;-61
2023/04/28 11:14:36;;;;;;;5.50;1.60;;;;;;;16.40;28.29;101498.86;107657;1254;95767;-60
2023/04/28 11:17:07;;;;;;;3.60;1.40;;;;;;;16.67;28.34;101491.16;107596;1254;108587;-63
2023/04/28 11:19:41;;;;;;;3.10;1.60;;;;;;;16.90;28.51;101495.48;107594;1251;109182;-63
2023/04/28 11:22:16;;;;;;;18.70;2.50;;;;;;;16.78;28.77;101493.45;107522;1254;107690;-61
2023/04/28 11:24:58;;;;;;;3.60;1.40;;;;;;;16.64;28.71;101490.60;107571;1251;95758;-61
2023/04/28 11:27:29;;;;;;;10.80;1.80;;;;;;;17.12;29.19;101485.48;107621;1254;95867;-62
2023/04/28 11:29:58;;;;;;;14.40;1.80;;;;;;;17.28;29.16;101485.80;107554;1254;109721;-61